DNMM

Murtala Muhammed International Airport

Lagos, Nigeria
METAR DNMM 242000Z 24003KT 9999 FEW011 27/24 Q1011 NOSIG
Observed Flight Rules
Feb-24 @ 20:00 UTC (13 minutes ago) Visual Flight Rules
Wind Visibility Clouds
240° at 3 knots 10,000+ meters
  • Few at 1,100' AGL
Temperatures Readings
Current 27°C / 81°F
Dewpoint 24°C / 75°F
Humidity 84%
Altimeter 29.85" Hg
Pressure 1011 hPa
Elevation 38
METAR DNMM 242000Z 24003KT 9999 FEW011 27/24 Q1011 NOSIG
Observed Flight Rules
Feb-24 @ 20:00 UTC
(13 minutes ago)
VFR
Wind Visibility
240° at 3 knots 10,000+ meters
Clouds
  • Few at 1,100' AGL
Temperature Dewpoint
27°C / 81°F 24°C / 75°F
Humidity Altimeter Pressure
84% 29.85" Hg 1011 hPa